Terminal Aerodrome Forecast
Issued by NWS

Home | Current Version | Previous Version | Text Only | Print | Product List | Glossary On
Versions: 1 2 3 4 5 6 7 8 9 10 11 12 13 14 15 16 17 18 19 20 21 22 23 24 25 26 27 28 29 30
000
FTUS45 KLKN 231128
TAFEKO
TAF
KEKO 231128Z 2312/2412 VRB06KT P6SM VCSH SCT040 OVC070
      TEMPO 2312/2316 -SHRA SCT020 BKN040
     FM232000 25007KT P6SM VCTS SCT040CB OVC070
      TEMPO 2322/2401 VRB12G20KT -TSRA BKN040CB
     FM240100 VRB06KT P6SM OVC100=

USA.gov is the U.S. government's official web portal to all federal, state and local government web resources and services.